Map

Track Data

SID SEASON NUMBER BASIN SUBBASIN NAME ISO_TIME NATURE LAT LON WMO_WIND WMO_PRES WMO_AGENCY TRACK_TYPE DIST2LAND LANDFALL IFLAG USA_AGENCY USA_ATCF_ID USA_LAT USA_LON USA_RECORD USA_STATUS USA_WIND USA_PRES USA_SSHS USA_R34_NE USA_R34_SE USA_R34_SW USA_R34_NW USA_R50_NE USA_R50_SE USA_R50_SW USA_R50_NW USA_R64_NE USA_R64_SE USA_R64_SW USA_R64_NW USA_POCI USA_ROCI USA_RMW USA_EYE TOKYO_LAT TOKYO_LON TOKYO_GRADE TOKYO_WIND TOKYO_PRES TOKYO_R50_DIR TOKYO_R50_LONG TOKYO_R50_SHORT TOKYO_R30_DIR TOKYO_R30_LONG TOKYO_R30_SHORT TOKYO_LAND CMA_LAT CMA_LON CMA_CAT CMA_WIND CMA_PRES HKO_LAT HKO_LON HKO_CAT HKO_WIND HKO_PRES NEWDELHI_LAT NEWDELHI_LON NEWDELHI_GRADE NEWDELHI_WIND NEWDELHI_PRES NEWDELHI_CI NEWDELHI_DP NEWDELHI_POCI REUNION_LAT REUNION_LON REUNION_TYPE REUNION_WIND REUNION_PRES REUNION_TNUM REUNION_CI REUNION_RMW REUNION_R34_NE REUNION_R34_SE REUNION_R34_SW REUNION_R34_NW REUNION_R50_NE REUNION_R50_SE REUNION_R50_SW REUNION_R50_NW REUNION_R64_NE REUNION_R64_SE REUNION_R64_SW REUNION_R64_NW BOM_LAT BOM_LON BOM_TYPE BOM_WIND BOM_PRES BOM_TNUM BOM_CI BOM_RMW BOM_R34_NE BOM_R34_SE BOM_R34_SW BOM_R34_NW BOM_R50_NE BOM_R50_SE BOM_R50_SW BOM_R50_NW BOM_R64_NE BOM_R64_SE BOM_R64_SW BOM_R64_NW BOM_ROCI BOM_POCI BOM_EYE BOM_POS_METHOD BOM_PRES_METHOD NADI_LAT NADI_LON NADI_CAT NADI_WIND NADI_PRES WELLINGTON_LAT WELLINGTON_LON WELLINGTON_WIND WELLINGTON_PRES DS824_LAT DS824_LON DS824_STAGE DS824_WIND DS824_PRES TD9636_LAT TD9636_LON TD9636_STAGE TD9636_WIND TD9636_PRES TD9635_LAT TD9635_LON TD9635_WIND TD9635_PRES TD9635_ROCI NEUMANN_LAT NEUMANN_LON NEUMANN_CLASS NEUMANN_WIND NEUMANN_PRES MLC_LAT MLC_LON MLC_CLASS MLC_WIND MLC_PRES USA_GUST BOM_GUST BOM_GUST_PER REUNION_GUST REUNION_GUST_PER USA_SEAHGT USA_SEARAD_NE USA_SEARAD_SE USA_SEARAD_SW USA_SEARAD_NW STORM_SPEED STORM_DIR
1948246N24265 1948 58 NA GM NOT_NAMED 1948-09-01 18:00:00 TS 24.3000 -94.8000 25 hurdat_atl main 280 280 O_____________ hurdat_atl AL051948 24.3000 -94.8000 TD 25 -1 0 0
1948246N24265 1948 58 NA GM NOT_NAMED 1948-09-01 21:00:00 TS 24.3000 -94.7975 main 280 280 P_____________ AL051948 24.3000 -94.7975 TD 27 -1 0 0
1948246N24265 1948 58 NA GM NOT_NAMED 1948-09-02 00:00:00 TS 24.3000 -94.8000 30 hurdat_atl main 280 280 O_____________ hurdat_atl AL051948 24.3000 -94.8000 TD 30 -1 0 0
1948246N24265 1948 58 NA GM NOT_NAMED 1948-09-02 03:00:00 TS 24.3000 -94.8075 main 280 280 P_____________ AL051948 24.3000 -94.8075 TD 30 -1 0 0
1948246N24265 1948 58 NA GM NOT_NAMED 1948-09-02 06:00:00 TS 24.3000 -94.8000 30 hurdat_atl main 280 280 O_____________ hurdat_atl AL051948 24.3000 -94.8000 TD 30 -1 0 0
1948246N24265 1948 58 NA GM NOT_NAMED 1948-09-02 09:00:00 TS 24.3000 -94.7800 main 280 280 P_____________ AL051948 24.3000 -94.7800 TD 32 -1 1 90
1948246N24265 1948 58 NA GM NOT_NAMED 1948-09-02 12:00:00 TS 24.3000 -94.7000 35 hurdat_atl main 289 289 O_____________ hurdat_atl AL051948 24.3000 -94.7000 TS 35 0 2 94
1948246N24265 1948 58 NA GM NOT_NAMED 1948-09-02 15:00:00 TS 24.2850 -94.5299 main 307 307 P_____________ AL051948 24.2850 -94.5299 TS 37 0 4 90
1948246N24265 1948 58 NA GM NOT_NAMED 1948-09-02 18:00:00 TS 24.3000 -94.3000 40 hurdat_atl main 326 326 O_____________ hurdat_atl AL051948 24.3000 -94.3000 TS 40 0 4 81
1948246N24265 1948 58 NA GM NOT_NAMED 1948-09-02 21:00:00 TS 24.3550 -94.0648 main 339 339 P_____________ AL051948 24.3550 -94.0648 TS 40 0 5 66
1948246N24265 1948 58 NA GM NOT_NAMED 1948-09-03 00:00:00 TS 24.5000 -93.8000 40 hurdat_atl main 363 363 O_____________ hurdat_atl AL051948 24.5000 -93.8000 TS 40 0 6 52
1948246N24265 1948 58 NA GM NOT_NAMED 1948-09-03 03:00:00 TS 24.7550 -93.5075 main 382 382 P_____________ AL051948 24.7550 -93.5075 TS 42 0 8 42
1948246N24265 1948 58 NA GM NOT_NAMED 1948-09-03 06:00:00 TS 25.1000 -93.2000 45 hurdat_atl main 403 400 O_____________ hurdat_atl AL051948 25.1000 -93.2000 TS 45 0 9 37
1948246N24265 1948 58 NA GM NOT_NAMED 1948-09-03 09:00:00 TS 25.4699 -92.9072 main 423 394 P_____________ AL051948 25.4699 -92.9072 TS 47 0 10 34
1948246N24265 1948 58 NA GM NOT_NAMED 1948-09-03 12:00:00 TS 25.9000 -92.6000 50 998 hurdat_atl main 394 331 O_____________ hurdat_atl AL051948 25.9000 -92.6000 TS 50 998 0 11 33
1948246N24265 1948 58 NA GM NOT_NAMED 1948-09-03 15:00:00 TS 26.3850 -92.2500 main 331 264 P_____________ AL051948 26.3850 -92.2500 TS 55 994 0 12 32
1948246N24265 1948 58 NA GM NOT_NAMED 1948-09-03 18:00:00 TS 26.9000 -91.9000 60 990 hurdat_atl main 264 201 O_____________ hurdat_atl AL051948 26.9000 -91.9000 TS 60 990 0 12 30
1948246N24265 1948 58 NA GM NOT_NAMED 1948-09-03 21:00:00 TS 27.3998 -91.5995 main 201 139 P_____________ AL051948 27.3998 -91.5995 TS 62 988 0 11 28
1948246N24265 1948 58 NA GM NOT_NAMED 1948-09-04 00:00:00 TS 27.9000 -91.3000 65 hurdat_atl main 139 89 I_____________ hurdat_atl AL051948 27.9000 -91.3000 HU 65 986 1 11 31
1948246N24265 1948 58 NA GM NOT_NAMED 1948-09-04 03:00:00 TS 28.3730 -90.9424 main 78 22 P_____________ AL051948 28.3730 -90.9424 HU 67 984 1 12 32
1948246N24265 1948 58 NA GM NOT_NAMED 1948-09-04 06:00:00 TS 28.9000 -90.6000 70 983 hurdat_atl main 22 9 O_____________ hurdat_atl AL051948 28.9000 -90.6000 HU 70 983 1 12 28
1948246N24265 1948 58 NA GM NOT_NAMED 1948-09-04 07:00:00 TS 29.1000 -90.5000 70 983 hurdat_atl main 9 0 O_____________ hurdat_atl AL051948 29.1000 -90.5000 L HU 70 983 1 12 26
1948246N24265 1948 58 NA NA NOT_NAMED 1948-09-04 09:00:00 TS 29.4395 -90.2997 main 0 0 P_____________ AL051948 29.4395 -90.2997 HU 65 984 1 11 29
1948246N24265 1948 58 NA NA NOT_NAMED 1948-09-04 12:00:00 TS 29.9000 -90.0000 60 986 hurdat_atl main 0 0 O_____________ hurdat_atl AL051948 29.9000 -90.0000 TS 60 986 0 12 27
1948246N24265 1948 58 NA NA NOT_NAMED 1948-09-04 15:00:00 TS 30.4803 -89.6783 main 0 0 P_____________ AL051948 30.4803 -89.6783 TS 52 0 13 23
1948246N24265 1948 58 NA NA NOT_NAMED 1948-09-04 18:00:00 TS 31.1000 -89.4000 45 hurdat_atl main 0 0 O_____________ hurdat_atl AL051948 31.1000 -89.4000 TS 45 0 13 18
1948246N24265 1948 58 NA NA NOT_NAMED 1948-09-04 21:00:00 TS 31.6999 -89.2048 main 0 0 P_____________ AL051948 31.6999 -89.2048 TS 40 0 12 12
1948246N24265 1948 58 NA NA NOT_NAMED 1948-09-05 00:00:00 TS 32.3000 -89.1000 35 hurdat_atl main 0 0 O_____________ hurdat_atl AL051948 32.3000 -89.1000 TS 35 0 12 6
1948246N24265 1948 58 NA NA NOT_NAMED 1948-09-05 03:00:00 TS 32.8925 -89.0697 main 0 0 P_____________ AL051948 32.8925 -89.0697 TS 32 -1 12 1
1948246N24265 1948 58 NA NA NOT_NAMED 1948-09-05 06:00:00 TS 33.5000 -89.1000 30 hurdat_atl main 0 0 O_____________ hurdat_atl AL051948 33.5000 -89.1000 TD 30 -1 13 358
1948246N24265 1948 58 NA NA NOT_NAMED 1948-09-05 09:00:00 TS 34.1650 -89.1424 main 0 0 P_____________ AL051948 34.1650 -89.1424 TD 27 -1 13 356
1948246N24265 1948 58 NA NA NOT_NAMED 1948-09-05 12:00:00 TS 34.8000 -89.2000 25 hurdat_atl main 0 0 O_____________ hurdat_atl AL051948 34.8000 -89.2000 TD 25 -1 12 355
1948246N24265 1948 58 NA NA NOT_NAMED 1948-09-05 15:00:00 TS 35.3450 -89.2574 main 0 0 P_____________ AL051948 35.3450 -89.2574 TD 25 -1 10 355
1948246N24265 1948 58 NA NA NOT_NAMED 1948-09-05 18:00:00 TS 35.8000 -89.3000 25 hurdat_atl main 0 0 O_____________ hurdat_atl AL051948 35.8000 -89.3000 TD 25 -1 8 356
1948246N24265 1948 58 NA NA NOT_NAMED 1948-09-05 21:00:00 TS 36.1500 -89.3224 main 0 0 P_____________ AL051948 36.1500 -89.3224 TD 25 -1 7 0
1948246N24265 1948 58 NA NA NOT_NAMED 1948-09-06 00:00:00 TS 36.5000 -89.3000 25 hurdat_atl main 0 0 O_____________ hurdat_atl AL051948 36.5000 -89.3000 TD 25 -1 8 5
1948246N24265 1948 58 NA NA NOT_NAMED 1948-09-06 03:00:00 TS 36.9549 -89.2370 main 0 0 P_____________ AL051948 36.9549 -89.2370 TD 25 -1 10 9
1948246N24265 1948 58 NA NA NOT_NAMED 1948-09-06 06:00:00 TS 37.5000 -89.1000 25 hurdat_atl main 0 0 O_____________ hurdat_atl AL051948 37.5000 -89.1000 TD 25 -1 12 12
1948246N24265 1948 58 NA NA NOT_NAMED 1948-09-06 09:00:00 TS 38.1347 -88.9094 main 0 0 P_____________ AL051948 38.1347 -88.9094 TD 22 -1 14 17
1948246N24265 1948 58 NA NA NOT_NAMED 1948-09-06 12:00:00 TS 38.8000 -88.6000 20 hurdat_atl main 0 0 O_____________ hurdat_atl AL051948 38.8000 -88.6000 TD 20 -1 14 25
1948246N24265 1948 58 NA NA NOT_NAMED 1948-09-06 15:00:00 TS 39.4182 -88.1445 main 0 0 P_____________ AL051948 39.4182 -88.1445 TD 20 -1 14 33
1948246N24265 1948 58 NA NA NOT_NAMED 1948-09-06 18:00:00 TS 40.0000 -87.6000 20 hurdat_atl main 0 O_____________ hurdat_atl AL051948 40.0000 -87.6000 TD 20 -1 14 36

About IBTrACS Database

This database is a web-friendly format of International Best Track Archive for Climate Stewardship (IBTrACS), a global best track data archive curated by NOAA dating back to 1842.

Updated: 2021-11-26